sensor_id;sensor_type;location;lat;lon;timestamp;temperature;humidity
29003;DHT22;16102;57.138;-2.118;2022-09-28T00:01:30;9.60;99.90
29003;DHT22;16102;57.138;-2.118;2022-09-28T00:03:57;9.60;99.90
29003;DHT22;16102;57.138;-2.118;2022-09-28T00:06:27;9.60;99.90
29003;DHT22;16102;57.138;-2.118;2022-09-28T00:08:56;9.70;99.90
29003;DHT22;16102;57.138;-2.118;2022-09-28T00:11:24;9.60;99.90
29003;DHT22;16102;57.138;-2.118;2022-09-28T00:13:56;9.70;99.90
29003;DHT22;16102;57.138;-2.118;2022-09-28T00:16:30;9.80;99.90
29003;DHT22;16102;57.138;-2.118;2022-09-28T00:18:57;9.80;99.90
29003;DHT22;16102;57.138;-2.118;2022-09-28T00:21:27;9.80;99.90
29003;DHT22;16102;57.138;-2.118;2022-09-28T00:23:56;9.80;99.90
29003;DHT22;16102;57.138;-2.118;2022-09-28T00:29:15;9.70;99.90
29003;DHT22;16102;57.138;-2.118;2022-09-28T00:31:42;9.70;99.90
29003;DHT22;16102;57.138;-2.118;2022-09-28T00:34:10;9.70;99.90
29003;DHT22;16102;57.138;-2.118;2022-09-28T00:36:37;9.60;99.90
29003;DHT22;16102;57.138;-2.118;2022-09-28T00:39:06;9.60;99.90
29003;DHT22;16102;57.138;-2.118;2022-09-28T00:41:34;9.50;99.90
29003;DHT22;16102;57.138;-2.118;2022-09-28T00:47:17;9.40;99.90
29003;DHT22;16102;57.138;-2.118;2022-09-28T00:52:31;9.30;99.90
29003;DHT22;16102;57.138;-2.118;2022-09-28T00:55:01;9.20;99.90
29003;DHT22;16102;57.138;-2.118;2022-09-28T00:57:29;9.10;99.90
29003;DHT22;16102;57.138;-2.118;2022-09-28T00:59:58;9.00;99.90
29003;DHT22;16102;57.138;-2.118;2022-09-28T01:02:27;9.00;99.90
29003;DHT22;16102;57.138;-2.118;2022-09-28T01:04:56;9.00;99.90
29003;DHT22;16102;57.138;-2.118;2022-09-28T01:07:24;9.00;99.90
29003;DHT22;16102;57.138;-2.118;2022-09-28T01:09:52;9.00;99.90
29003;DHT22;16102;57.138;-2.118;2022-09-28T01:12:20;9.00;99.90
29003;DHT22;16102;57.138;-2.118;2022-09-28T01:14:48;9.00;99.90
29003;DHT22;16102;57.138;-2.118;2022-09-28T01:17:25;9.00;99.90
29003;DHT22;16102;57.138;-2.118;2022-09-28T01:28:13;8.90;99.90
29003;DHT22;16102;57.138;-2.118;2022-09-28T01:33:21;8.90;99.90
29003;DHT22;16102;57.138;-2.118;2022-09-28T01:38:37;8.80;99.90
29003;DHT22;16102;57.138;-2.118;2022-09-28T01:41:06;8.80;99.90
29003;DHT22;16102;57.138;-2.118;2022-09-28T01:43:38;8.80;99.90
29003;DHT22;16102;57.138;-2.118;2022-09-28T01:46:13;8.70;99.90
29003;DHT22;16102;57.138;-2.118;2022-09-28T01:48:57;8.70;99.90
29003;DHT22;16102;57.138;-2.118;2022-09-28T01:51:37;8.70;99.90
29003;DHT22;16102;57.138;-2.118;2022-09-28T01:54:12;8.70;99.90
29003;DHT22;16102;57.138;-2.118;2022-09-28T01:59:50;8.70;99.90
29003;DHT22;16102;57.138;-2.118;2022-09-28T02:02:23;8.60;99.90
29003;DHT22;16102;57.138;-2.118;2022-09-28T02:04:56;8.60;99.90
29003;DHT22;16102;57.138;-2.118;2022-09-28T02:07:32;8.50;99.90
29003;DHT22;16102;57.138;-2.118;2022-09-28T02:10:04;8.60;99.90
29003;DHT22;16102;57.138;-2.118;2022-09-28T02:12:36;8.50;99.90
29003;DHT22;16102;57.138;-2.118;2022-09-28T02:15:25;8.50;99.90
29003;DHT22;16102;57.138;-2.118;2022-09-28T02:17:55;8.50;99.90
29003;DHT22;16102;57.138;-2.118;2022-09-28T02:20:23;8.50;99.90
29003;DHT22;16102;57.138;-2.118;2022-09-28T02:22:53;8.50;99.90
29003;DHT22;16102;57.138;-2.118;2022-09-28T02:25:52;8.40;99.90
29003;DHT22;16102;57.138;-2.118;2022-09-28T02:28:23;8.40;99.90
29003;DHT22;16102;57.138;-2.118;2022-09-28T02:30:50;8.40;99.90
29003;DHT22;16102;57.138;-2.118;2022-09-28T02:33:22;8.40;99.90
29003;DHT22;16102;57.138;-2.118;2022-09-28T02:35:50;8.30;99.90
29003;DHT22;16102;57.138;-2.118;2022-09-28T02:38:17;8.30;99.90
29003;DHT22;16102;57.138;-2.118;2022-09-28T02:40:53;8.30;99.90
29003;DHT22;16102;57.138;-2.118;2022-09-28T02:46:35;8.30;99.90
29003;DHT22;16102;57.138;-2.118;2022-09-28T02:57:25;8.30;92.80
29003;DHT22;16102;57.138;-2.118;2022-09-28T03:00:06;8.30;76.80
29003;DHT22;16102;57.138;-2.118;2022-09-28T03:03:16;8.30;68.80
29003;DHT22;16102;57.138;-2.118;2022-09-28T03:06:03;8.30;60.60
29003;DHT22;16102;57.138;-2.118;2022-09-28T03:08:47;8.30;57.70
29003;DHT22;16102;57.138;-2.118;2022-09-28T03:11:29;8.30;55.30
29003;DHT22;16102;57.138;-2.118;2022-09-28T03:13:58;8.20;59.80
29003;DHT22;16102;57.138;-2.118;2022-09-28T03:16:25;8.20;71.10
29003;DHT22;16102;57.138;-2.118;2022-09-28T03:18:53;8.20;89.50
29003;DHT22;16102;57.138;-2.118;2022-09-28T03:21:20;8.30;99.90
29003;DHT22;16102;57.138;-2.118;2022-09-28T03:23:47;8.30;99.90
29003;DHT22;16102;57.138;-2.118;2022-09-28T03:26:14;8.30;99.90
29003;DHT22;16102;57.138;-2.118;2022-09-28T03:28:42;8.40;99.90
29003;DHT22;16102;57.138;-2.118;2022-09-28T03:31:09;8.40;99.90
29003;DHT22;16102;57.138;-2.118;2022-09-28T03:33:36;8.50;99.90
29003;DHT22;16102;57.138;-2.118;2022-09-28T03:36:03;8.50;99.90
29003;DHT22;16102;57.138;-2.118;2022-09-28T03:38:31;8.60;99.90
29003;DHT22;16102;57.138;-2.118;2022-09-28T03:40:59;8.60;99.90
29003;DHT22;16102;57.138;-2.118;2022-09-28T03:43:27;8.70;99.90
29003;DHT22;16102;57.138;-2.118;2022-09-28T03:45:57;8.70;99.90
29003;DHT22;16102;57.138;-2.118;2022-09-28T03:48:27;8.80;99.90
29003;DHT22;16102;57.138;-2.118;2022-09-28T03:51:03;8.80;99.90
29003;DHT22;16102;57.138;-2.118;2022-09-28T03:53:32;8.90;99.90
29003;DHT22;16102;57.138;-2.118;2022-09-28T03:56:04;8.90;99.90
29003;DHT22;16102;57.138;-2.118;2022-09-28T03:58:32;8.90;99.90
29003;DHT22;16102;57.138;-2.118;2022-09-28T04:01:07;8.90;99.90
29003;DHT22;16102;57.138;-2.118;2022-09-28T04:03:42;9.00;99.90
29003;DHT22;16102;57.138;-2.118;2022-09-28T04:06:09;9.00;99.90
29003;DHT22;16102;57.138;-2.118;2022-09-28T04:08:36;9.00;99.90
29003;DHT22;16102;57.138;-2.118;2022-09-28T04:11:03;8.90;99.90
29003;DHT22;16102;57.138;-2.118;2022-09-28T04:13:30;8.90;99.90
29003;DHT22;16102;57.138;-2.118;2022-09-28T04:15:59;8.90;99.90
29003;DHT22;16102;57.138;-2.118;2022-09-28T04:18:27;8.80;99.90
29003;DHT22;16102;57.138;-2.118;2022-09-28T04:21:10;8.80;99.90
29003;DHT22;16102;57.138;-2.118;2022-09-28T04:23:38;8.80;99.90
29003;DHT22;16102;57.138;-2.118;2022-09-28T04:26:14;8.80;99.90
29003;DHT22;16102;57.138;-2.118;2022-09-28T04:28:43;8.80;99.90
29003;DHT22;16102;57.138;-2.118;2022-09-28T04:34:12;8.90;99.90
29003;DHT22;16102;57.138;-2.118;2022-09-28T04:36:40;8.80;99.90
29003;DHT22;16102;57.138;-2.118;2022-09-28T04:39:07;8.90;99.90
29003;DHT22;16102;57.138;-2.118;2022-09-28T04:41:34;8.90;99.90
29003;DHT22;16102;57.138;-2.118;2022-09-28T04:44:01;8.90;99.90
29003;DHT22;16102;57.138;-2.118;2022-09-28T04:46:28;9.00;99.90
29003;DHT22;16102;57.138;-2.118;2022-09-28T04:48:55;9.00;99.90
29003;DHT22;16102;57.138;-2.118;2022-09-28T04:51:22;9.00;99.90
29003;DHT22;16102;57.138;-2.118;2022-09-28T04:53:49;9.00;99.90
29003;DHT22;16102;57.138;-2.118;2022-09-28T04:56:17;9.00;99.90
29003;DHT22;16102;57.138;-2.118;2022-09-28T04:58:45;9.00;99.90
29003;DHT22;16102;57.138;-2.118;2022-09-28T05:01:19;9.10;99.90
29003;DHT22;16102;57.138;-2.118;2022-09-28T05:03:49;9.10;99.90
29003;DHT22;16102;57.138;-2.118;2022-09-28T05:06:19;9.10;99.90
29003;DHT22;16102;57.138;-2.118;2022-09-28T05:08:48;9.10;99.90
29003;DHT22;16102;57.138;-2.118;2022-09-28T05:11:15;9.10;99.90
29003;DHT22;16102;57.138;-2.118;2022-09-28T05:13:43;9.20;99.90
29003;DHT22;16102;57.138;-2.118;2022-09-28T05:16:15;9.20;99.90
29003;DHT22;16102;57.138;-2.118;2022-09-28T05:18:42;9.20;99.90
29003;DHT22;16102;57.138;-2.118;2022-09-28T05:21:13;9.20;1.00
29003;DHT22;16102;57.138;-2.118;2022-09-28T05:23:45;9.20;1.00
29003;DHT22;16102;57.138;-2.118;2022-09-28T05:26:13;9.20;1.00
29003;DHT22;16102;57.138;-2.118;2022-09-28T05:28:40;9.20;1.00
29003;DHT22;16102;57.138;-2.118;2022-09-28T05:31:07;9.20;1.00
29003;DHT22;16102;57.138;-2.118;2022-09-28T05:33:35;9.20;1.00
29003;DHT22;16102;57.138;-2.118;2022-09-28T05:36:02;9.10;1.00
29003;DHT22;16102;57.138;-2.118;2022-09-28T05:38:29;9.20;1.00
29003;DHT22;16102;57.138;-2.118;2022-09-28T05:40:56;9.20;30.00
29003;DHT22;16102;57.138;-2.118;2022-09-28T05:43:24;9.10;96.30
29003;DHT22;16102;57.138;-2.118;2022-09-28T05:45:51;9.20;99.90
29003;DHT22;16102;57.138;-2.118;2022-09-28T05:48:21;9.20;99.90
29003;DHT22;16102;57.138;-2.118;2022-09-28T05:50:52;9.20;99.90
29003;DHT22;16102;57.138;-2.118;2022-09-28T05:53:19;9.20;99.90
29003;DHT22;16102;57.138;-2.118;2022-09-28T05:55:46;9.20;99.90
29003;DHT22;16102;57.138;-2.118;2022-09-28T05:58:14;9.30;99.90
29003;DHT22;16102;57.138;-2.118;2022-09-28T06:00:41;9.30;99.90
29003;DHT22;16102;57.138;-2.118;2022-09-28T06:03:12;9.40;99.90
29003;DHT22;16102;57.138;-2.118;2022-09-28T06:05:40;9.30;99.90
29003;DHT22;16102;57.138;-2.118;2022-09-28T06:08:08;9.30;1.00
29003;DHT22;16102;57.138;-2.118;2022-09-28T06:10:38;9.40;1.00
29003;DHT22;16102;57.138;-2.118;2022-09-28T06:13:06;9.30;1.00
29003;DHT22;16102;57.138;-2.118;2022-09-28T06:15:34;9.30;1.00
29003;DHT22;16102;57.138;-2.118;2022-09-28T06:18:07;9.30;1.00
29003;DHT22;16102;57.138;-2.118;2022-09-28T06:20:37;9.30;1.00
29003;DHT22;16102;57.138;-2.118;2022-09-28T06:23:08;9.30;1.00
29003;DHT22;16102;57.138;-2.118;2022-09-28T06:25:35;9.40;1.00
29003;DHT22;16102;57.138;-2.118;2022-09-28T06:28:08;9.40;1.00
29003;DHT22;16102;57.138;-2.118;2022-09-28T06:30:36;9.30;1.00
29003;DHT22;16102;57.138;-2.118;2022-09-28T06:33:08;9.30;15.30
29003;DHT22;16102;57.138;-2.118;2022-09-28T06:35:36;9.30;50.80
29003;DHT22;16102;57.138;-2.118;2022-09-28T06:38:03;9.30;99.90
29003;DHT22;16102;57.138;-2.118;2022-09-28T06:40:30;9.40;99.90
29003;DHT22;16102;57.138;-2.118;2022-09-28T06:43:03;9.40;99.90
29003;DHT22;16102;57.138;-2.118;2022-09-28T06:45:36;9.40;99.90
29003;DHT22;16102;57.138;-2.118;2022-09-28T06:48:04;9.40;99.90
29003;DHT22;16102;57.138;-2.118;2022-09-28T06:50:36;9.40;99.90
29003;DHT22;16102;57.138;-2.118;2022-09-28T06:53:05;9.40;99.90
29003;DHT22;16102;57.138;-2.118;2022-09-28T06:55:33;9.40;99.90
29003;DHT22;16102;57.138;-2.118;2022-09-28T06:58:03;9.50;99.90
29003;DHT22;16102;57.138;-2.118;2022-09-28T07:00:33;9.50;99.90
29003;DHT22;16102;57.138;-2.118;2022-09-28T07:03:09;9.40;99.90
29003;DHT22;16102;57.138;-2.118;2022-09-28T07:05:42;9.40;99.90
29003;DHT22;16102;57.138;-2.118;2022-09-28T07:08:10;9.40;99.90
29003;DHT22;16102;57.138;-2.118;2022-09-28T07:10:45;9.40;99.90
29003;DHT22;16102;57.138;-2.118;2022-09-28T07:13:14;9.40;99.90
29003;DHT22;16102;57.138;-2.118;2022-09-28T07:16:01;9.40;99.90
29003;DHT22;16102;57.138;-2.118;2022-09-28T07:18:28;9.40;99.90
29003;DHT22;16102;57.138;-2.118;2022-09-28T07:20:56;9.40;1.00
29003;DHT22;16102;57.138;-2.118;2022-09-28T07:23:26;9.50;1.00
29003;DHT22;16102;57.138;-2.118;2022-09-28T07:25:55;9.50;1.00
29003;DHT22;16102;57.138;-2.118;2022-09-28T07:28:23;9.60;1.00
29003;DHT22;16102;57.138;-2.118;2022-09-28T07:30:51;9.60;1.00
29003;DHT22;16102;57.138;-2.118;2022-09-28T07:33:18;9.70;1.00
29003;DHT22;16102;57.138;-2.118;2022-09-28T07:35:52;9.70;1.00
29003;DHT22;16102;57.138;-2.118;2022-09-28T07:38:20;9.70;1.00
29003;DHT22;16102;57.138;-2.118;2022-09-28T07:40:47;9.80;1.00
29003;DHT22;16102;57.138;-2.118;2022-09-28T07:43:32;9.80;1.00
29003;DHT22;16102;57.138;-2.118;2022-09-28T07:45:59;9.90;23.50
29003;DHT22;16102;57.138;-2.118;2022-09-28T07:48:26;9.90;50.00
29003;DHT22;16102;57.138;-2.118;2022-09-28T07:50:55;10.10;91.50
29003;DHT22;16102;57.138;-2.118;2022-09-28T07:53:24;10.10;99.90
29003;DHT22;16102;57.138;-2.118;2022-09-28T07:55:55;10.20;99.90
29003;DHT22;16102;57.138;-2.118;2022-09-28T07:58:22;10.30;99.90
29003;DHT22;16102;57.138;-2.118;2022-09-28T08:00:49;10.30;97.20
29003;DHT22;16102;57.138;-2.118;2022-09-28T08:03:17;10.30;99.90
29003;DHT22;16102;57.138;-2.118;2022-09-28T08:05:45;10.40;96.70
29003;DHT22;16102;57.138;-2.118;2022-09-28T08:08:13;10.40;31.50
29003;DHT22;16102;57.138;-2.118;2022-09-28T08:10:44;10.40;1.00
29003;DHT22;16102;57.138;-2.118;2022-09-28T08:13:13;10.50;1.00
29003;DHT22;16102;57.138;-2.118;2022-09-28T08:15:41;10.50;1.00
29003;DHT22;16102;57.138;-2.118;2022-09-28T08:18:08;10.60;1.00
29003;DHT22;16102;57.138;-2.118;2022-09-28T08:20:36;10.60;1.00
29003;DHT22;16102;57.138;-2.118;2022-09-28T08:23:21;10.60;99.90
29003;DHT22;16102;57.138;-2.118;2022-09-28T08:25:50;10.70;99.90
29003;DHT22;16102;57.138;-2.118;2022-09-28T08:28:22;10.70;99.90
29003;DHT22;16102;57.138;-2.118;2022-09-28T08:30:49;10.80;72.50
29003;DHT22;16102;57.138;-2.118;2022-09-28T08:33:18;10.80;1.00
29003;DHT22;16102;57.138;-2.118;2022-09-28T08:35:47;10.90;1.00
29003;DHT22;16102;57.138;-2.118;2022-09-28T08:38:20;10.90;1.00
29003;DHT22;16102;57.138;-2.118;2022-09-28T08:41:07;10.90;1.00
29003;DHT22;16102;57.138;-2.118;2022-09-28T08:46:12;11.00;1.00
29003;DHT22;16102;57.138;-2.118;2022-09-28T08:48:54;11.10;1.00
29003;DHT22;16102;57.138;-2.118;2022-09-28T08:52:27;11.10;99.90
29003;DHT22;16102;57.138;-2.118;2022-09-28T08:54:59;11.20;99.90
29003;DHT22;16102;57.138;-2.118;2022-09-28T08:57:43;11.30;99.90
29003;DHT22;16102;57.138;-2.118;2022-09-28T09:00:35;11.30;99.90
29003;DHT22;16102;57.138;-2.118;2022-09-28T09:03:11;11.40;99.90
29003;DHT22;16102;57.138;-2.118;2022-09-28T09:08:40;11.50;99.90
29003;DHT22;16102;57.138;-2.118;2022-09-28T09:16:33;11.80;99.90
29003;DHT22;16102;57.138;-2.118;2022-09-28T09:19:14;11.90;99.40
29003;DHT22;16102;57.138;-2.118;2022-09-28T09:22:00;11.90;54.20
29003;DHT22;16102;57.138;-2.118;2022-09-28T09:24:40;11.90;15.30
29003;DHT22;16102;57.138;-2.118;2022-09-28T09:27:18;12.00;1.00
29003;DHT22;16102;57.138;-2.118;2022-09-28T09:44:03;12.10;1.00
29003;DHT22;16102;57.138;-2.118;2022-09-28T09:46:45;12.10;1.00
29003;DHT22;16102;57.138;-2.118;2022-09-28T09:49:29;12.20;1.00
29003;DHT22;16102;57.138;-2.118;2022-09-28T09:52:05;12.30;1.00
29003;DHT22;16102;57.138;-2.118;2022-09-28T09:54:41;12.40;1.00
29003;DHT22;16102;57.138;-2.118;2022-09-28T09:57:20;12.40;1.00
29003;DHT22;16102;57.138;-2.118;2022-09-28T09:59:48;12.50;1.00
29003;DHT22;16102;57.138;-2.118;2022-09-28T10:02:30;12.60;1.00
29003;DHT22;16102;57.138;-2.118;2022-09-28T10:07:53;12.70;99.90
29003;DHT22;16102;57.138;-2.118;2022-09-28T10:12:55;12.90;99.90
29003;DHT22;16102;57.138;-2.118;2022-09-28T10:15:28;13.00;99.90
29003;DHT22;16102;57.138;-2.118;2022-09-28T10:17:59;13.10;99.90
29003;DHT22;16102;57.138;-2.118;2022-09-28T10:20:28;13.10;99.90
29003;DHT22;16102;57.138;-2.118;2022-09-28T10:22:58;13.10;99.90
29003;DHT22;16102;57.138;-2.118;2022-09-28T10:25:31;13.20;99.90
29003;DHT22;16102;57.138;-2.118;2022-09-28T10:28:00;13.10;98.20
29003;DHT22;16102;57.138;-2.118;2022-09-28T10:30:28;13.10;52.10
29003;DHT22;16102;57.138;-2.118;2022-09-28T10:32:57;13.10;19.50
29003;DHT22;16102;57.138;-2.118;2022-09-28T10:35:41;13.00;5.30
29003;DHT22;16102;57.138;-2.118;2022-09-28T10:38:15;13.00;1.00
29003;DHT22;16102;57.138;-2.118;2022-09-28T10:40:54;12.90;1.00
29003;DHT22;16102;57.138;-2.118;2022-09-28T10:43:36;12.90;1.00
29003;DHT22;16102;57.138;-2.118;2022-09-28T10:46:06;12.90;1.00
29003;DHT22;16102;57.138;-2.118;2022-09-28T10:49:16;12.90;1.00
29003;DHT22;16102;57.138;-2.118;2022-09-28T10:51:46;13.00;1.00
29003;DHT22;16102;57.138;-2.118;2022-09-28T10:54:24;13.00;1.00
29003;DHT22;16102;57.138;-2.118;2022-09-28T10:56:53;13.00;1.00
29003;DHT22;16102;57.138;-2.118;2022-09-28T11:02:29;13.10;1.00
29003;DHT22;16102;57.138;-2.118;2022-09-28T11:05:03;13.10;1.00
29003;DHT22;16102;57.138;-2.118;2022-09-28T11:07:33;13.00;1.00
29003;DHT22;16102;57.138;-2.118;2022-09-28T11:10:00;13.00;1.00
29003;DHT22;16102;57.138;-2.118;2022-09-28T11:12:37;13.00;4.10
29003;DHT22;16102;57.138;-2.118;2022-09-28T11:15:20;12.90;23.80
29003;DHT22;16102;57.138;-2.118;2022-09-28T11:17:48;12.90;92.20
29003;DHT22;16102;57.138;-2.118;2022-09-28T11:22:59;12.70;99.90
29003;DHT22;16102;57.138;-2.118;2022-09-28T11:25:28;12.60;99.90
29003;DHT22;16102;57.138;-2.118;2022-09-28T11:33:10;12.50;1.00
29003;DHT22;16102;57.138;-2.118;2022-09-28T11:46:48;12.50;1.00
29003;DHT22;16102;57.138;-2.118;2022-09-28T11:49:35;12.50;1.00
29003;DHT22;16102;57.138;-2.118;2022-09-28T11:52:26;12.60;1.00
29003;DHT22;16102;57.138;-2.118;2022-09-28T11:55:45;12.60;1.00
29003;DHT22;16102;57.138;-2.118;2022-09-28T11:57:55;12.60;1.00
29003;DHT22;16102;57.138;-2.118;2022-09-28T12:00:41;12.60;1.00
29003;DHT22;16102;57.138;-2.118;2022-09-28T12:03:33;12.50;1.00
29003;DHT22;16102;57.138;-2.118;2022-09-28T12:06:12;12.50;1.00
29003;DHT22;16102;57.138;-2.118;2022-09-28T12:09:04;12.50;1.00
29003;DHT22;16102;57.138;-2.118;2022-09-28T12:11:38;12.50;1.00
29003;DHT22;16102;57.138;-2.118;2022-09-28T12:17:37;12.50;1.00
29003;DHT22;16102;57.138;-2.118;2022-09-28T12:20:19;12.50;1.00
29003;DHT22;16102;57.138;-2.118;2022-09-28T12:23:14;12.50;1.00
29003;DHT22;16102;57.138;-2.118;2022-09-28T12:25:48;12.50;1.00
29003;DHT22;16102;57.138;-2.118;2022-09-28T12:30:58;12.40;1.00
29003;DHT22;16102;57.138;-2.118;2022-09-28T12:33:36;12.40;1.00
29003;DHT22;16102;57.138;-2.118;2022-09-28T12:51:52;12.70;99.90
29003;DHT22;16102;57.138;-2.118;2022-09-28T12:57:38;12.80;99.90
29003;DHT22;16102;57.138;-2.118;2022-09-28T13:00:16;12.80;99.90
29003;DHT22;16102;57.138;-2.118;2022-09-28T13:03:08;12.80;99.90
29003;DHT22;16102;57.138;-2.118;2022-09-28T13:08:21;12.80;99.90
29003;DHT22;16102;57.138;-2.118;2022-09-28T13:11:02;12.80;99.90
29003;DHT22;16102;57.138;-2.118;2022-09-28T13:14:13;12.90;99.90
29003;DHT22;16102;57.138;-2.118;2022-09-28T13:23:03;13.10;99.90
29003;DHT22;16102;57.138;-2.118;2022-09-28T13:25:24;13.20;99.90
29003;DHT22;16102;57.138;-2.118;2022-09-28T13:28:00;13.30;99.90
29003;DHT22;16102;57.138;-2.118;2022-09-28T13:30:29;13.30;99.90
29003;DHT22;16102;57.138;-2.118;2022-09-28T13:33:00;13.30;99.90
29003;DHT22;16102;57.138;-2.118;2022-09-28T13:35:28;13.40;99.90
29003;DHT22;16102;57.138;-2.118;2022-09-28T13:41:11;13.60;94.60
29003;DHT22;16102;57.138;-2.118;2022-09-28T13:50:02;13.50;84.20
29003;DHT22;16102;57.138;-2.118;2022-09-28T13:55:52;13.50;92.60
29003;DHT22;16102;57.138;-2.118;2022-09-28T13:58:29;13.50;96.60
29003;DHT22;16102;57.138;-2.118;2022-09-28T14:01:34;13.40;99.10
29003;DHT22;16102;57.138;-2.118;2022-09-28T14:04:19;13.40;99.90
29003;DHT22;16102;57.138;-2.118;2022-09-28T14:07:09;13.40;99.90
29003;DHT22;16102;57.138;-2.118;2022-09-28T14:09:44;13.50;99.90
29003;DHT22;16102;57.138;-2.118;2022-09-28T14:15:01;13.40;99.90
29003;DHT22;16102;57.138;-2.118;2022-09-28T14:17:43;13.50;99.90
29003;DHT22;16102;57.138;-2.118;2022-09-28T14:20:20;13.40;99.90
29003;DHT22;16102;57.138;-2.118;2022-09-28T14:25:31;13.30;99.90
29003;DHT22;16102;57.138;-2.118;2022-09-28T14:28:24;13.30;99.90
29003;DHT22;16102;57.138;-2.118;2022-09-28T14:30:55;13.30;99.90
29003;DHT22;16102;57.138;-2.118;2022-09-28T14:33:29;13.30;99.90
29003;DHT22;16102;57.138;-2.118;2022-09-28T14:36:19;13.40;99.90
29003;DHT22;16102;57.138;-2.118;2022-09-28T14:39:37;13.40;99.90
29003;DHT22;16102;57.138;-2.118;2022-09-28T14:42:27;13.40;99.90
29003;DHT22;16102;57.138;-2.118;2022-09-28T14:50:26;13.40;99.90
29003;DHT22;16102;57.138;-2.118;2022-09-28T14:53:05;13.30;99.90
29003;DHT22;16102;57.138;-2.118;2022-09-28T14:55:55;13.30;99.90
29003;DHT22;16102;57.138;-2.118;2022-09-28T14:58:26;13.30;99.90
29003;DHT22;16102;57.138;-2.118;2022-09-28T15:01:08;13.20;99.90
29003;DHT22;16102;57.138;-2.118;2022-09-28T15:04:08;13.20;99.90
29003;DHT22;16102;57.138;-2.118;2022-09-28T15:06:44;13.20;99.90
29003;DHT22;16102;57.138;-2.118;2022-09-28T15:10:02;13.20;99.90
29003;DHT22;16102;57.138;-2.118;2022-09-28T15:12:43;13.10;99.90
29003;DHT22;16102;57.138;-2.118;2022-09-28T15:15:30;13.10;99.90
29003;DHT22;16102;57.138;-2.118;2022-09-28T15:20:53;13.00;99.90
29003;DHT22;16102;57.138;-2.118;2022-09-28T15:23:41;13.00;99.90
29003;DHT22;16102;57.138;-2.118;2022-09-28T15:26:24;13.00;99.90
29003;DHT22;16102;57.138;-2.118;2022-09-28T15:28:53;13.00;99.90
29003;DHT22;16102;57.138;-2.118;2022-09-28T15:31:23;13.00;99.90
29003;DHT22;16102;57.138;-2.118;2022-09-28T15:33:51;13.00;99.90
29003;DHT22;16102;57.138;-2.118;2022-09-28T15:36:40;13.00;99.90
29003;DHT22;16102;57.138;-2.118;2022-09-28T15:39:20;13.00;99.90
29003;DHT22;16102;57.138;-2.118;2022-09-28T15:41:56;13.00;99.90
29003;DHT22;16102;57.138;-2.118;2022-09-28T15:44:39;13.00;99.90
29003;DHT22;16102;57.138;-2.118;2022-09-28T15:47:15;12.90;99.90
29003;DHT22;16102;57.138;-2.118;2022-09-28T15:50:06;13.00;99.90
29003;DHT22;16102;57.138;-2.118;2022-09-28T15:52:43;13.00;99.90
29003;DHT22;16102;57.138;-2.118;2022-09-28T15:55:32;13.00;99.90
29003;DHT22;16102;57.138;-2.118;2022-09-28T15:58:12;13.00;99.90
29003;DHT22;16102;57.138;-2.118;2022-09-28T16:00:44;12.90;99.90
29003;DHT22;16102;57.138;-2.118;2022-09-28T16:03:26;12.90;99.90
29003;DHT22;16102;57.138;-2.118;2022-09-28T16:11:17;12.90;99.90
29003;DHT22;16102;57.138;-2.118;2022-09-28T16:13:56;12.90;99.90
29003;DHT22;16102;57.138;-2.118;2022-09-28T16:16:45;12.90;99.90
29003;DHT22;16102;57.138;-2.118;2022-09-28T16:21:55;12.90;99.90
29003;DHT22;16102;57.138;-2.118;2022-09-28T16:24:34;12.80;1.00
29003;DHT22;16102;57.138;-2.118;2022-09-28T16:27:08;12.80;1.00
29003;DHT22;16102;57.138;-2.118;2022-09-28T16:38:14;12.80;1.00
29003;DHT22;16102;57.138;-2.118;2022-09-28T16:40:52;12.80;1.00
29003;DHT22;16102;57.138;-2.118;2022-09-28T16:43:23;12.80;1.00
29003;DHT22;16102;57.138;-2.118;2022-09-28T16:46:07;12.70;1.00
29003;DHT22;16102;57.138;-2.118;2022-09-28T16:48:39;12.80;1.00
29003;DHT22;16102;57.138;-2.118;2022-09-28T16:51:07;12.80;1.00
29003;DHT22;16102;57.138;-2.118;2022-09-28T16:53:34;12.80;1.00
29003;DHT22;16102;57.138;-2.118;2022-09-28T16:56:20;12.70;1.00
29003;DHT22;16102;57.138;-2.118;2022-09-28T16:58:48;12.80;1.00
29003;DHT22;16102;57.138;-2.118;2022-09-28T17:01:16;12.70;1.00
29003;DHT22;16102;57.138;-2.118;2022-09-28T17:03:43;12.70;1.00
29003;DHT22;16102;57.138;-2.118;2022-09-28T17:06:16;12.70;1.00
29003;DHT22;16102;57.138;-2.118;2022-09-28T17:08:44;12.70;1.00
29003;DHT22;16102;57.138;-2.118;2022-09-28T17:11:14;12.70;1.00
29003;DHT22;16102;57.138;-2.118;2022-09-28T17:13:49;12.60;1.00
29003;DHT22;16102;57.138;-2.118;2022-09-28T17:16:19;12.70;1.00
29003;DHT22;16102;57.138;-2.118;2022-09-28T17:19:17;12.70;1.00
29003;DHT22;16102;57.138;-2.118;2022-09-28T17:21:45;12.70;1.00
29003;DHT22;16102;57.138;-2.118;2022-09-28T17:24:12;12.60;1.00
29003;DHT22;16102;57.138;-2.118;2022-09-28T17:26:40;12.70;1.00
29003;DHT22;16102;57.138;-2.118;2022-09-28T17:29:12;12.60;1.00
29003;DHT22;16102;57.138;-2.118;2022-09-28T17:31:41;12.60;1.00
29003;DHT22;16102;57.138;-2.118;2022-09-28T17:34:10;12.60;1.00
29003;DHT22;16102;57.138;-2.118;2022-09-28T17:36:40;12.50;1.00
29003;DHT22;16102;57.138;-2.118;2022-09-28T17:39:16;12.50;1.00
29003;DHT22;16102;57.138;-2.118;2022-09-28T17:41:43;12.50;1.00
29003;DHT22;16102;57.138;-2.118;2022-09-28T17:44:10;12.50;1.00
29003;DHT22;16102;57.138;-2.118;2022-09-28T17:46:45;12.50;1.00
29003;DHT22;16102;57.138;-2.118;2022-09-28T17:49:15;12.50;1.00
29003;DHT22;16102;57.138;-2.118;2022-09-28T17:51:42;12.50;1.00
29003;DHT22;16102;57.138;-2.118;2022-09-28T17:54:10;12.50;1.00
29003;DHT22;16102;57.138;-2.118;2022-09-28T17:56:38;12.50;1.00
29003;DHT22;16102;57.138;-2.118;2022-09-28T17:59:10;12.50;1.80
29003;DHT22;16102;57.138;-2.118;2022-09-28T18:01:39;12.50;5.20
29003;DHT22;16102;57.138;-2.118;2022-09-28T18:04:08;12.50;9.90
29003;DHT22;16102;57.138;-2.118;2022-09-28T18:06:44;12.50;12.30
29003;DHT22;16102;57.138;-2.118;2022-09-28T18:09:14;12.50;24.30
29003;DHT22;16102;57.138;-2.118;2022-09-28T18:11:43;12.50;15.00
29003;DHT22;16102;57.138;-2.118;2022-09-28T18:14:11;12.50;8.80
29003;DHT22;16102;57.138;-2.118;2022-09-28T18:16:38;12.50;8.40
29003;DHT22;16102;57.138;-2.118;2022-09-28T18:21:33;12.50;14.80
29003;DHT22;16102;57.138;-2.118;2022-09-28T18:24:01;12.50;16.50
29003;DHT22;16102;57.138;-2.118;2022-09-28T18:26:28;12.40;20.30
29003;DHT22;16102;57.138;-2.118;2022-09-28T18:28:55;12.50;27.20
29003;DHT22;16102;57.138;-2.118;2022-09-28T18:31:22;12.50;32.30
29003;DHT22;16102;57.138;-2.118;2022-09-28T18:33:49;12.50;37.60
29003;DHT22;16102;57.138;-2.118;2022-09-28T18:36:16;12.50;41.70
29003;DHT22;16102;57.138;-2.118;2022-09-28T18:38:43;12.50;50.20
29003;DHT22;16102;57.138;-2.118;2022-09-28T18:41:12;12.50;51.90
29003;DHT22;16102;57.138;-2.118;2022-09-28T18:43:50;12.50;58.80
29003;DHT22;16102;57.138;-2.118;2022-09-28T18:46:18;12.50;66.10
29003;DHT22;16102;57.138;-2.118;2022-09-28T18:48:45;12.50;67.20
29003;DHT22;16102;57.138;-2.118;2022-09-28T18:51:13;12.50;65.40
29003;DHT22;16102;57.138;-2.118;2022-09-28T18:53:40;12.50;59.90
29003;DHT22;16102;57.138;-2.118;2022-09-28T18:56:10;12.50;70.10
29003;DHT22;16102;57.138;-2.118;2022-09-28T18:58:38;12.50;75.00